Time;durP1;ratioP1;P1;durP2;ratioP2;P2;SDS_P1;SDS_P2;PMS_P1;PMS_P2;Temp;Humidity;BMP_temperature;BMP_pressure;BME280_temperature;BME280_humidity;BME280_pressure;Samples;Min_cycle;Max_cycle;Signal;HPM_P1;HPM_P2
2022/01/26 00:06:33;;;;;;;82.68;37.10;;;3.00;99.90;;;;;;5051272;28;20383;-74
2022/01/26 00:08:58;;;;;;;85.05;33.90;;;2.80;99.90;;;;;;5051448;28;20155;-75
2022/01/26 00:11:25;;;;;;;97.38;38.60;;;2.90;99.90;;;;;;5052796;28;20132;-74
2022/01/26 00:13:51;;;;;;;81.85;33.28;;;3.00;99.90;;;;;;5084595;28;20045;-74
2022/01/26 00:16:26;;;;;;;87.22;35.22;;;2.90;99.90;;;;;;5052803;28;20044;-75
2022/01/26 00:18:54;;;;;;;98.32;37.40;;;2.90;99.90;;;;;;5053057;28;20123;-75
2022/01/26 00:26:33;;;;;;;90.47;37.30;;;3.00;99.90;;;;;;5051096;28;20053;-75
2022/01/26 00:29:10;;;;;;;77.05;31.95;;;3.00;99.90;;;;;;5052073;28;20385;-75
2022/01/26 00:40:00;;;;;;;95.40;36.38;;;2.90;99.90;;;;;;5051435;28;20060;-75
2022/01/26 00:42:31;;;;;;;89.07;36.85;;;2.90;99.90;;;;;;5051738;28;20041;-75
2022/01/26 00:44:57;;;;;;;90.32;37.40;;;2.90;99.90;;;;;;5052204;28;20094;-75
2022/01/26 00:47:22;;;;;;;85.97;34.22;;;2.90;99.90;;;;;;5052292;28;20539;-74
2022/01/26 00:49:50;;;;;;;93.35;37.85;;;3.10;99.90;;;;;;5051227;28;20060;-74
2022/01/26 00:52:25;;;;;;;96.00;37.85;;;2.90;99.90;;;;;;5051846;28;20045;-74
2022/01/26 00:54:51;;;;;;;103.32;37.63;;;2.90;99.90;;;;;;5051508;28;20053;-74
2022/01/26 00:57:16;;;;;;;99.35;37.45;;;2.90;99.90;;;;;;5083575;28;20388;-74
2022/01/26 00:59:42;;;;;;;100.38;36.30;;;2.80;99.90;;;;;;5051338;28;20041;-75
2022/01/26 01:02:08;;;;;;;85.88;35.65;;;2.90;99.90;;;;;;5051440;28;20492;-74
2022/01/26 01:04:33;;;;;;;95.00;34.55;;;2.80;99.90;;;;;;5051491;28;20084;-75
2022/01/26 01:07:02;;;;;;;94.00;36.83;;;2.90;99.90;;;;;;5051606;28;20098;-75
2022/01/26 01:09:32;;;;;;;95.05;37.00;;;2.90;99.90;;;;;;5050667;28;20132;-75
2022/01/26 01:12:00;;;;;;;90.88;35.67;;;2.80;99.90;;;;;;5049979;28;20045;-75
2022/01/26 01:14:26;;;;;;;84.85;34.17;;;2.90;99.90;;;;;;5049977;28;20499;-74
2022/01/26 01:16:54;;;;;;;98.18;38.40;;;2.80;99.90;;;;;;5049829;28;20041;-74
2022/01/26 01:19:38;;;;;;;94.53;36.85;;;2.80;99.90;;;;;;5030795;28;20098;-75
2022/01/26 01:29:58;;;;;;;92.63;35.38;;;2.90;99.90;;;;;;5049294;28;20052;-75
2022/01/26 01:32:33;;;;;;;84.43;31.45;;;2.80;99.90;;;;;;5049390;28;20049;-75
2022/01/26 01:35:00;;;;;;;92.38;38.85;;;2.90;99.90;;;;;;5050110;28;20596;-74
2022/01/26 01:37:25;;;;;;;87.10;37.13;;;2.80;99.90;;;;;;5051474;28;20057;-75
2022/01/26 01:39:51;;;;;;;91.78;35.95;;;2.80;99.90;;;;;;5083142;28;20068;-75
2022/01/26 01:42:17;;;;;;;78.07;34.47;;;2.80;99.90;;;;;;5049677;28;20064;-75
2022/01/26 01:44:42;;;;;;;84.90;34.47;;;2.90;99.90;;;;;;5051322;28;20178;-75
2022/01/26 01:47:08;;;;;;;84.13;34.83;;;2.80;99.90;;;;;;5050189;28;20095;-75
2022/01/26 01:49:35;;;;;;;94.38;37.42;;;2.80;99.90;;;;;;5051202;28;20049;-74
2022/01/26 01:52:04;;;;;;;79.93;33.75;;;2.80;99.90;;;;;;5051132;28;20126;-75
2022/01/26 01:54:30;;;;;;;80.70;33.55;;;2.80;99.90;;;;;;5049612;28;20476;-75
2022/01/26 01:56:58;;;;;;;84.22;37.10;;;2.80;99.90;;;;;;5083643;28;20094;-74
2022/01/26 01:59:29;;;;;;;80.72;32.65;;;2.80;99.90;;;;;;5048002;28;20041;-74
2022/01/26 02:01:55;;;;;;;86.00;36.95;;;2.80;99.90;;;;;;5050941;28;20384;-75
2022/01/26 02:04:21;;;;;;;101.28;39.08;;;2.80;99.90;;;;;;5029758;28;20073;-74
2022/01/26 02:06:46;;;;;;;89.43;34.90;;;2.80;99.90;;;;;;5029032;28;20543;-74
2022/01/26 02:09:12;;;;;;;86.97;37.90;;;2.80;99.90;;;;;;5029369;28;20045;-74
2022/01/26 02:11:50;;;;;;;85.00;35.25;;;2.80;99.90;;;;;;5029584;28;20075;-74
2022/01/26 02:14:30;;;;;;;93.18;36.50;;;2.80;99.90;;;;;;5029881;28;20041;-74
2022/01/26 02:52:59;;;;;;;104.40;38.53;;;2.80;99.90;;;;;;5029319;28;20057;-74
2022/01/26 03:03:32;;;;;;;94.68;35.75;;;2.70;99.90;;;;;;5028461;28;20067;-75
2022/01/26 03:06:04;;;;;;;93.60;37.97;;;2.80;99.90;;;;;;5062457;28;20046;-75
2022/01/26 03:08:37;;;;;;;80.65;33.65;;;2.80;99.90;;;;;;5029276;28;20037;-74
2022/01/26 03:11:08;;;;;;;86.80;35.10;;;2.80;99.90;;;;;;5029691;28;20044;-74
2022/01/26 03:13:38;;;;;;;82.03;37.33;;;2.80;99.90;;;;;;5029425;28;20056;-75
2022/01/26 03:21:38;;;;;;;84.03;35.00;;;2.80;99.90;;;;;;5048840;28;20507;-75
2022/01/26 03:34:34;;;;;;;89.32;37.95;;;2.80;99.90;;;;;;5065927;28;20629;-75
2022/01/26 03:37:06;;;;;;;83.90;35.75;;;2.80;99.90;;;;;;5032368;28;20049;-74
2022/01/26 03:39:42;;;;;;;92.70;37.38;;;2.80;99.90;;;;;;5064953;28;20034;-74
2022/01/26 03:42:13;;;;;;;76.20;33.88;;;2.80;99.90;;;;;;5032061;28;20053;-75
2022/01/26 03:44:39;;;;;;;83.43;35.97;;;2.80;99.90;;;;;;5031690;28;20083;-75
2022/01/26 03:47:06;;;;;;;82.85;34.17;;;2.80;99.90;;;;;;5065281;28;20103;-75
2022/01/26 03:49:31;;;;;;;84.15;37.38;;;2.80;99.90;;;;;;5032233;28;20041;-75
2022/01/26 03:51:57;;;;;;;76.72;32.60;;;2.80;99.90;;;;;;5031431;28;20755;-75
2022/01/26 03:54:23;;;;;;;89.72;37.00;;;2.80;99.90;;;;;;5031876;28;20056;-75
2022/01/26 03:56:49;;;;;;;83.55;32.50;;;2.80;99.90;;;;;;5031978;28;20076;-75
2022/01/26 03:59:15;;;;;;;80.70;32.47;;;2.80;99.90;;;;;;5032516;28;20590;-75
2022/01/26 04:01:41;;;;;;;77.90;35.25;;;2.80;99.90;;;;;;5032151;28;20060;-75
2022/01/26 04:04:07;;;;;;;71.75;33.60;;;2.80;99.90;;;;;;5031931;28;20081;-75
2022/01/26 04:06:34;;;;;;;83.70;36.00;;;2.80;99.90;;;;;;5031281;28;20054;-74
2022/01/26 04:09:00;;;;;;;79.72;33.45;;;2.80;99.90;;;;;;5033158;28;20037;-74
2022/01/26 04:11:34;;;;;;;86.75;36.60;;;2.80;99.90;;;;;;5033325;28;20111;-75
2022/01/26 04:14:04;;;;;;;79.07;35.00;;;2.80;99.90;;;;;;5031342;28;20484;-74
2022/01/26 04:16:29;;;;;;;73.25;32.95;;;2.80;99.90;;;;;;5033138;28;20053;-75
2022/01/26 04:18:56;;;;;;;70.10;30.17;;;2.80;99.90;;;;;;5065279;28;20049;-75
2022/01/26 04:23:57;;;;;;;75.25;30.35;;;2.80;99.90;;;;;;5064881;28;20088;-75
2022/01/26 04:26:30;;;;;;;65.93;29.40;;;2.80;99.90;;;;;;5031332;28;20049;-74
2022/01/26 04:29:01;;;;;;;76.43;31.10;;;2.80;99.90;;;;;;5030949;28;20045;-75
2022/01/26 04:31:27;;;;;;;76.90;32.20;;;2.70;99.90;;;;;;5031606;28;20492;-75
2022/01/26 04:33:53;;;;;;;84.30;34.03;;;2.70;99.90;;;;;;5030667;28;20081;-74
2022/01/26 04:36:27;;;;;;;70.63;31.60;;;2.70;99.90;;;;;;5064473;28;20053;-75
2022/01/26 04:38:56;;;;;;;74.03;33.42;;;2.70;99.90;;;;;;5032921;28;20052;-75
2022/01/26 04:41:29;;;;;;;74.68;30.98;;;2.70;99.90;;;;;;5031505;28;20492;-75
2022/01/26 04:44:00;;;;;;;70.13;30.80;;;2.70;99.90;;;;;;5064493;28;20408;-75
2022/01/26 04:46:26;;;;;;;70.53;30.50;;;2.70;99.90;;;;;;5031149;28;20064;-75
2022/01/26 04:48:52;;;;;;;77.20;32.70;;;2.70;99.90;;;;;;5064094;28;20041;-75
2022/01/26 04:51:19;;;;;;;66.07;31.85;;;2.70;99.90;;;;;;5031081;28;20057;-75
2022/01/26 04:53:44;;;;;;;70.88;30.40;;;2.60;99.90;;;;;;5031067;28;20060;-74
2022/01/26 04:56:10;;;;;;;69.00;31.40;;;2.60;99.90;;;;;;5030155;28;20042;-75
2022/01/26 04:58:36;;;;;;;68.00;29.50;;;2.60;99.90;;;;;;5031118;28;20057;-74
2022/01/26 05:01:02;;;;;;;65.78;29.98;;;2.60;99.90;;;;;;5031884;28;20534;-75
2022/01/26 05:03:27;;;;;;;65.78;29.33;;;2.60;99.90;;;;;;5030165;28;20064;-74
2022/01/26 05:05:53;;;;;;;71.25;29.00;;;2.60;99.90;;;;;;5031071;28;20142;-75
2022/01/26 05:08:18;;;;;;;64.70;29.02;;;2.60;99.90;;;;;;5031919;28;20516;-75
2022/01/26 05:10:44;;;;;;;67.80;29.65;;;2.60;99.90;;;;;;5030110;28;20057;-75
2022/01/26 05:13:13;;;;;;;70.72;29.58;;;2.60;99.90;;;;;;5031806;28;20044;-75
2022/01/26 05:15:39;;;;;;;71.95;29.98;;;2.60;99.90;;;;;;5031879;28;20574;-74
2022/01/26 05:18:06;;;;;;;73.68;32.78;;;2.60;99.90;;;;;;5031052;28;20076;-75
2022/01/26 05:20:32;;;;;;;69.47;29.77;;;2.60;99.90;;;;;;5030457;28;20132;-75
2022/01/26 05:22:58;;;;;;;70.85;27.40;;;2.60;99.90;;;;;;5030801;28;20131;-74
2022/01/26 05:25:24;;;;;;;67.38;28.48;;;2.60;99.90;;;;;;5029337;28;20488;-75
2022/01/26 05:27:50;;;;;;;76.63;31.40;;;2.60;99.90;;;;;;5030622;28;20041;-74
2022/01/26 05:30:15;;;;;;;67.22;29.42;;;2.60;99.90;;;;;;5029327;28;20044;-74
2022/01/26 05:32:41;;;;;;;64.68;27.17;;;2.50;99.90;;;;;;5031910;28;20048;-74
2022/01/26 05:35:07;;;;;;;72.88;30.30;;;2.60;99.90;;;;;;5036799;28;20045;-74
2022/01/26 05:37:32;;;;;;;66.85;28.73;;;2.60;99.90;;;;;;5046517;28;20041;-74
2022/01/26 05:39:58;;;;;;;65.15;29.98;;;2.50;99.90;;;;;;5050411;28;20144;-76
2022/01/26 05:42:24;;;;;;;71.47;31.00;;;2.60;99.90;;;;;;5049515;28;20079;-75
2022/01/26 05:44:51;;;;;;;66.03;28.25;;;2.50;99.90;;;;;;5049692;28;20040;-75
2022/01/26 05:47:19;;;;;;;67.82;30.02;;;2.50;99.90;;;;;;5049797;28;20522;-74
2022/01/26 05:49:45;;;;;;;68.20;30.13;;;2.50;99.90;;;;;;5049864;28;20049;-74
2022/01/26 05:52:11;;;;;;;61.75;28.08;;;2.50;99.90;;;;;;5049093;28;20067;-74
2022/01/26 05:54:37;;;;;;;65.65;28.02;;;2.50;99.90;;;;;;5083914;28;20045;-74
2022/01/26 05:57:03;;;;;;;71.07;31.33;;;2.50;99.90;;;;;;5049701;28;20052;-74
2022/01/26 05:59:29;;;;;;;77.68;33.75;;;2.50;99.90;;;;;;5048974;28;20076;-74
2022/01/26 06:01:56;;;;;;;63.92;28.77;;;2.50;99.90;;;;;;5049692;28;20408;-74
2022/01/26 06:04:23;;;;;;;61.05;26.67;;;2.50;99.90;;;;;;5049507;28;20045;-74
2022/01/26 06:06:48;;;;;;;64.88;28.20;;;2.40;99.90;;;;;;5048948;28;20508;-74
2022/01/26 06:09:14;;;;;;;66.43;27.55;;;2.40;99.90;;;;;;5049338;28;20048;-75
2022/01/26 06:11:39;;;;;;;70.85;29.25;;;2.50;99.90;;;;;;5081969;28;20052;-74
2022/01/26 06:14:05;;;;;;;66.10;28.27;;;2.40;99.90;;;;;;5048603;28;20048;-74
2022/01/26 06:16:31;;;;;;;61.17;28.10;;;2.40;99.90;;;;;;5049563;28;20555;-74
2022/01/26 06:18:56;;;;;;;65.22;28.55;;;2.40;99.90;;;;;;5049808;28;20053;-74
2022/01/26 06:21:22;;;;;;;61.72;27.02;;;2.40;99.90;;;;;;5048746;28;20137;-74
2022/01/26 06:23:48;;;;;;;71.47;29.92;;;2.40;99.90;;;;;;5048344;28;20809;-75
2022/01/26 06:26:13;;;;;;;68.80;28.10;;;2.40;99.90;;;;;;5082764;28;20045;-75
2022/01/26 06:28:39;;;;;;;75.18;32.22;;;2.40;99.90;;;;;;5048535;28;20068;-75
2022/01/26 06:31:10;;;;;;;73.22;31.92;;;2.50;99.90;;;;;;5049107;28;20045;-74
2022/01/26 06:33:42;;;;;;;77.75;31.63;;;2.50;99.90;;;;;;5048950;28;20159;-75
2022/01/26 06:36:13;;;;;;;77.18;30.27;;;2.40;99.90;;;;;;5050528;28;20060;-74
2022/01/26 06:38:41;;;;;;;77.57;31.52;;;2.50;99.90;;;;;;5050138;28;20044;-74
2022/01/26 06:41:07;;;;;;;70.30;28.42;;;2.50;99.90;;;;;;5040710;28;20098;-74
2022/01/26 06:43:33;;;;;;;68.55;30.55;;;2.40;99.90;;;;;;5049463;28;20432;-74
2022/01/26 06:46:07;;;;;;;75.50;32.40;;;2.50;99.90;;;;;;5049167;28;20135;-74
2022/01/26 06:51:00;;;;;;;76.20;32.85;;;2.50;99.90;;;;;;5049738;28;20455;-74
2022/01/26 06:53:26;;;;;;;77.03;32.63;;;2.50;99.90;;;;;;5049410;28;20120;-74
2022/01/26 06:55:51;;;;;;;82.15;32.53;;;2.50;99.90;;;;;;5082353;28;20129;-74
2022/01/26 06:58:17;;;;;;;67.60;30.50;;;2.50;99.90;;;;;;5065651;28;20480;-74
2022/01/26 07:00:43;;;;;;;68.45;28.63;;;2.50;99.90;;;;;;5050554;28;20053;-74
2022/01/26 07:03:09;;;;;;;81.53;32.78;;;2.50;99.90;;;;;;5080578;28;20044;-74
2022/01/26 07:05:34;;;;;;;76.45;32.67;;;2.50;99.90;;;;;;5048937;28;20135;-74
2022/01/26 07:08:00;;;;;;;75.30;32.97;;;2.50;99.90;;;;;;5086556;28;20055;-75
2022/01/26 07:10:26;;;;;;;69.82;30.63;;;2.50;99.90;;;;;;5053744;28;20472;-74
2022/01/26 07:12:51;;;;;;;79.03;31.80;;;2.50;99.90;;;;;;5052852;28;20044;-74
2022/01/26 07:23:29;;;;;;;91.32;34.35;;;2.50;99.90;;;;;;5051327;28;20060;-74
2022/01/26 07:25:55;;;;;;;81.15;33.67;;;2.60;99.90;;;;;;5052374;28;20045;-74
2022/01/26 07:28:21;;;;;;;74.90;32.65;;;2.60;99.90;;;;;;5052636;28;20052;-75
2022/01/26 07:30:46;;;;;;;78.32;32.50;;;2.60;99.90;;;;;;5051773;28;20044;-74
2022/01/26 07:33:13;;;;;;;80.05;31.77;;;2.60;99.90;;;;;;5051500;28;20094;-75
2022/01/26 07:35:38;;;;;;;79.88;33.90;;;2.60;99.90;;;;;;5052457;28;20045;-75
2022/01/26 07:38:05;;;;;;;71.72;33.90;;;2.60;99.90;;;;;;5085610;28;20045;-75
2022/01/26 07:40:31;;;;;;;74.75;32.58;;;2.70;99.90;;;;;;5052369;28;20040;-75
2022/01/26 07:42:57;;;;;;;81.88;34.20;;;2.70;99.90;;;;;;5052405;28;20407;-75
2022/01/26 07:45:23;;;;;;;79.03;33.90;;;2.70;99.90;;;;;;5051414;28;20041;-74
2022/01/26 07:47:52;;;;;;;82.57;36.58;;;2.70;99.90;;;;;;5046042;28;20136;-75
2022/01/26 07:50:20;;;;;;;81.40;34.22;;;2.80;99.90;;;;;;5051665;28;20051;-74
2022/01/26 07:52:45;;;;;;;71.55;32.88;;;2.80;99.90;;;;;;5052544;28;20519;-75
2022/01/26 07:55:16;;;;;;;77.90;33.88;;;2.80;99.90;;;;;;5085956;28;20049;-75
2022/01/26 07:57:43;;;;;;;93.18;38.60;;;2.80;99.90;;;;;;5052002;28;20102;-74
2022/01/26 08:00:10;;;;;;;73.22;34.90;;;2.80;99.90;;;;;;5051195;28;20136;-69
2022/01/26 08:02:35;;;;;;;93.13;38.53;;;2.80;99.90;;;;;;5050763;28;20049;-73
2022/01/26 08:05:01;;;;;;;89.15;38.40;;;2.90;99.90;;;;;;5050861;28;20106;-72
2022/01/26 08:07:27;;;;;;;82.28;38.13;;;2.90;99.90;;;;;;5077994;28;20041;-73
2022/01/26 08:09:53;;;;;;;80.95;35.45;;;2.90;99.90;;;;;;5084989;28;20041;-78
2022/01/26 08:12:18;;;;;;;89.70;38.90;;;2.90;99.90;;;;;;5046633;28;20037;-76
2022/01/26 08:14:45;;;;;;;82.45;36.53;;;2.90;99.90;;;;;;5052507;28;20037;-76
2022/01/26 08:17:14;;;;;;;84.70;36.55;;;2.90;99.90;;;;;;5052553;28;20124;-78
2022/01/26 08:19:40;;;;;;;80.75;37.45;;;2.90;99.90;;;;;;5051502;28;20041;-79
2022/01/26 08:22:05;;;;;;;80.80;37.50;;;3.00;99.90;;;;;;5084947;28;20059;-79
2022/01/26 08:24:32;;;;;;;81.85;36.80;;;3.00;99.90;;;;;;5084131;28;20090;-75
2022/01/26 08:27:10;;;;;;;84.45;37.08;;;3.00;99.90;;;;;;5050517;28;20106;-75
2022/01/26 08:29:45;;;;;;;74.80;31.13;;;3.00;99.90;;;;;;5067730;28;20427;-75
2022/01/26 08:32:11;;;;;;;87.40;38.03;;;3.00;99.90;;;;;;5041687;28;20133;-76
2022/01/26 08:34:37;;;;;;;74.22;35.42;;;3.00;99.90;;;;;;5050671;28;20123;-75
2022/01/26 08:37:03;;;;;;;76.32;37.33;;;3.00;99.90;;;;;;5051054;28;20070;-75
2022/01/26 08:39:29;;;;;;;80.07;37.45;;;3.10;99.90;;;;;;5051479;28;20077;-75
2022/01/26 08:41:55;;;;;;;90.05;40.15;;;3.10;99.90;;;;;;5047555;28;20083;-75
2022/01/26 08:44:21;;;;;;;85.07;38.88;;;3.10;99.90;;;;;;5051184;28;20467;-75
2022/01/26 08:46:47;;;;;;;80.47;37.35;;;3.10;99.90;;;;;;5051112;28;20559;-75
2022/01/26 08:49:13;;;;;;;80.07;38.58;;;3.10;99.90;;;;;;5049601;28;20135;-73
2022/01/26 08:51:39;;;;;;;77.72;37.65;;;3.20;99.90;;;;;;5043672;28;20095;-72
2022/01/26 08:54:05;;;;;;;79.18;38.03;;;3.20;99.90;;;;;;5063659;28;20041;-72
2022/01/26 08:56:31;;;;;;;83.13;37.88;;;3.20;99.90;;;;;;5050380;28;20688;-72
2022/01/26 08:58:56;;;;;;;80.75;39.75;;;3.30;99.90;;;;;;5046984;28;20040;-73
2022/01/26 09:01:22;;;;;;;73.90;37.78;;;3.30;99.90;;;;;;5046976;28;20404;-72
2022/01/26 09:03:48;;;;;;;82.47;36.65;;;3.40;99.90;;;;;;5082705;28;20670;-72
2022/01/26 09:06:13;;;;;;;85.38;39.92;;;3.40;99.90;;;;;;5083213;28;20084;-72
2022/01/26 09:08:42;;;;;;;70.13;34.22;;;3.40;99.90;;;;;;5050343;28;20087;-72
2022/01/26 09:11:11;;;;;;;67.65;33.10;;;3.50;99.90;;;;;;5049860;28;20044;-73
2022/01/26 09:13:37;;;;;;;70.97;34.38;;;3.50;99.90;;;;;;5050872;28;20087;-73
2022/01/26 09:16:08;;;;;;;72.75;33.67;;;3.50;99.90;;;;;;5048352;28;20072;-74
2022/01/26 09:18:48;;;;;;;72.53;34.05;;;3.50;99.90;;;;;;5050010;28;20048;-74
2022/01/26 09:21:14;;;;;;;64.35;32.38;;;3.50;99.90;;;;;;5049902;28;20519;-74
2022/01/26 09:23:39;;;;;;;74.97;37.70;;;3.60;99.90;;;;;;5049751;28;21265;-74
2022/01/26 09:26:05;;;;;;;70.00;33.55;;;3.50;99.90;;;;;;5043502;28;20056;-73
2022/01/26 09:28:30;;;;;;;69.00;33.85;;;3.60;99.90;;;;;;5035016;28;20057;-73
2022/01/26 09:30:56;;;;;;;73.32;34.58;;;3.60;99.90;;;;;;5028830;28;20412;-74
2022/01/26 09:33:22;;;;;;;72.78;36.83;;;3.60;99.90;;;;;;5030089;28;20056;-73
2022/01/26 09:35:48;;;;;;;65.13;34.28;;;3.60;99.90;;;;;;5036158;28;20128;-73
2022/01/26 09:38:13;;;;;;;77.25;37.92;;;3.60;99.90;;;;;;5041200;28;20088;-73
2022/01/26 09:40:39;;;;;;;72.88;33.17;;;3.70;99.90;;;;;;5030453;28;20049;-74
2022/01/26 09:43:05;;;;;;;67.53;34.65;;;3.70;99.90;;;;;;5048699;28;20503;-76
2022/01/26 09:45:34;;;;;;;69.05;35.28;;;3.70;99.90;;;;;;5048036;28;20128;-73
2022/01/26 09:48:04;;;;;;;67.88;33.45;;;3.70;99.90;;;;;;5049960;28;20063;-71
2022/01/26 09:50:31;;;;;;;72.40;34.22;;;3.70;99.90;;;;;;5040615;28;20051;-71
2022/01/26 09:52:57;;;;;;;68.53;35.58;;;3.70;99.90;;;;;;5047625;28;20057;-71
2022/01/26 09:55:24;;;;;;;70.22;33.92;;;3.70;99.90;;;;;;5047644;28;20106;-72
2022/01/26 09:57:53;;;;;;;67.30;34.45;;;3.80;99.90;;;;;;5048641;28;20128;-72
2022/01/26 10:00:19;;;;;;;68.25;35.88;;;3.80;99.90;;;;;;5048718;28;20053;-71
2022/01/26 10:02:56;;;;;;;70.50;32.28;;;3.80;99.90;;;;;;5048876;28;20156;-71
2022/01/26 10:05:22;;;;;;;71.43;35.90;;;3.80;99.90;;;;;;5048263;28;20135;-72
2022/01/26 10:19:10;;;;;;;61.08;28.92;;;3.90;99.90;;;;;;5049517;28;20064;-72
2022/01/26 10:21:48;;;;;;;61.63;29.60;;;3.90;99.90;;;;;;5048861;28;20195;-72
2022/01/26 10:24:13;;;;;;;76.35;33.40;;;3.90;99.90;;;;;;5048309;28;20536;-72
2022/01/26 10:26:39;;;;;;;61.25;28.45;;;3.90;99.90;;;;;;5048377;28;20048;-72
2022/01/26 10:29:05;;;;;;;61.38;28.45;;;3.90;99.90;;;;;;5048496;28;20111;-72
2022/01/26 10:31:38;;;;;;;59.08;28.48;;;3.90;99.90;;;;;;5048598;28;20549;-72
2022/01/26 10:34:19;;;;;;;62.13;27.77;;;4.00;99.90;;;;;;5048139;28;20056;-72
2022/01/26 10:37:00;;;;;;;54.60;27.05;;;4.00;99.90;;;;;;5048960;28;20045;-72
2022/01/26 10:39:33;;;;;;;67.72;31.13;;;4.00;99.90;;;;;;5048564;28;20045;-72
2022/01/26 10:42:04;;;;;;;59.17;27.70;;;4.00;99.90;;;;;;5049881;28;20056;-72
2022/01/26 10:44:33;;;;;;;58.80;27.67;;;4.00;99.90;;;;;;5052894;28;20048;-71
2022/01/26 10:47:00;;;;;;;57.47;29.50;;;4.00;99.90;;;;;;5053878;28;20366;-72
2022/01/26 10:52:28;;;;;;;59.85;27.55;;;4.00;99.90;;;;;;5053992;28;20057;-72
2022/01/26 10:54:54;;;;;;;56.10;27.55;;;4.00;99.90;;;;;;5052094;28;20071;-72
2022/01/26 10:57:20;;;;;;;52.35;26.15;;;4.00;99.90;;;;;;5052277;28;20059;-72
2022/01/26 10:59:49;;;;;;;61.55;29.20;;;4.00;99.90;;;;;;5052437;28;20052;-72
2022/01/26 11:02:23;;;;;;;64.20;29.80;;;4.00;99.90;;;;;;5051530;28;20056;-72
2022/01/26 11:04:49;;;;;;;59.85;30.40;;;4.00;99.90;;;;;;5052730;28;20491;-72
2022/01/26 11:07:16;;;;;;;55.92;27.08;;;4.00;99.90;;;;;;5052312;28;20427;-72
2022/01/26 11:09:45;;;;;;;61.65;30.35;;;4.00;99.90;;;;;;5051627;28;20451;-72
2022/01/26 11:12:12;;;;;;;55.05;25.20;;;4.00;99.90;;;;;;5052218;28;20479;-71
2022/01/26 11:14:50;;;;;;;64.70;29.42;;;4.00;99.90;;;;;;5052277;28;20045;-73
2022/01/26 11:17:33;;;;;;;63.95;29.77;;;3.90;99.90;;;;;;5050869;28;20040;-72
2022/01/26 11:20:01;;;;;;;59.03;30.23;;;3.90;99.90;;;;;;5047516;28;20064;-72
2022/01/26 11:22:30;;;;;;;66.05;28.83;;;3.90;99.90;;;;;;5052657;28;20079;-71
2022/01/26 11:25:08;;;;;;;63.72;26.23;;;3.90;99.90;;;;;;5053062;28;20053;-72
2022/01/26 11:27:35;;;;;;;61.58;29.77;;;4.00;99.90;;;;;;5051674;28;20454;-72
2022/01/26 11:30:05;;;;;;;64.07;28.85;;;4.00;99.90;;;;;;5050573;28;20079;-72
2022/01/26 11:32:36;;;;;;;68.72;30.35;;;4.10;99.90;;;;;;5051324;28;20492;-75
2022/01/26 11:35:07;;;;;;;88.82;30.48;;;4.10;99.90;;;;;;5053043;28;20052;-72
2022/01/26 11:37:45;;;;;;;64.95;32.00;;;4.10;99.90;;;;;;5085426;28;20103;-71
2022/01/26 11:46:09;;;;;;;68.78;30.10;;;4.10;99.90;;;;;;5052123;28;20076;-71
2022/01/26 11:48:34;;;;;;;68.13;31.05;;;4.10;99.90;;;;;;5052502;28;20067;-71
2022/01/26 11:51:02;;;;;;;60.22;32.40;;;4.10;99.90;;;;;;5051468;28;20471;-71
2022/01/26 11:53:29;;;;;;;61.58;30.58;;;4.10;99.90;;;;;;5050767;28;20043;-71
2022/01/26 11:56:03;;;;;;;63.95;28.92;;;4.10;99.90;;;;;;5052486;28;20061;-73
2022/01/26 11:58:36;;;;;;;71.07;31.67;;;4.10;99.90;;;;;;5051414;28;20059;-71
2022/01/26 12:01:19;;;;;;;65.28;30.88;;;4.00;99.90;;;;;;5051557;28;20049;-72
2022/01/26 12:04:15;;;;;;;70.00;30.00;;;4.10;99.90;;;;;;5052101;28;20218;-72
2022/01/26 12:06:48;;;;;;;82.30;34.67;;;4.00;99.90;;;;;;5052043;28;20059;-72
2022/01/26 12:09:15;;;;;;;67.60;31.17;;;4.10;99.90;;;;;;5051899;28;20061;-71
2022/01/26 12:11:50;;;;;;;73.50;34.45;;;4.10;99.90;;;;;;5051011;28;20051;-72
2022/01/26 12:14:20;;;;;;;69.53;32.13;;;4.10;99.90;;;;;;5051442;28;20041;-72
2022/01/26 12:16:48;;;;;;;69.85;30.17;;;4.10;99.90;;;;;;5051839;28;20060;-72
2022/01/26 12:33:48;;;;;;;66.57;31.80;;;4.30;99.90;;;;;;5051638;28;20500;-73
2022/01/26 12:36:30;;;;;;;68.57;32.95;;;4.30;99.90;;;;;;5052290;28;20052;-72
2022/01/26 12:38:57;;;;;;;67.35;31.90;;;4.30;99.90;;;;;;5052900;28;20044;-71
2022/01/26 12:43:56;;;;;;;57.13;29.48;;;4.30;99.90;;;;;;5051270;28;20086;-71
2022/01/26 12:46:23;;;;;;;66.25;30.48;;;4.30;99.90;;;;;;5050117;28;20411;-72
2022/01/26 12:48:51;;;;;;;67.78;33.05;;;4.30;99.90;;;;;;5051150;28;20049;-71
2022/01/26 12:51:17;;;;;;;69.50;33.53;;;4.30;99.90;;;;;;5050822;28;20106;-71
2022/01/26 12:53:43;;;;;;;66.40;30.65;;;4.30;99.90;;;;;;5050001;28;20090;-71
2022/01/26 12:56:13;;;;;;;64.38;30.63;;;4.40;99.90;;;;;;5051879;28;20057;-72
2022/01/26 12:58:41;;;;;;;67.72;30.27;;;4.40;99.90;;;;;;5050919;28;20136;-72
2022/01/26 13:01:09;;;;;;;71.22;29.98;;;4.40;99.90;;;;;;5049818;28;20055;-69
2022/01/26 13:03:39;;;;;;;64.45;30.67;;;4.40;99.90;;;;;;5050883;28;20076;-70
2022/01/26 13:06:10;;;;;;;65.15;30.48;;;4.50;99.90;;;;;;5051502;28;20407;-71
2022/01/26 13:08:42;;;;;;;75.10;29.23;;;4.50;99.90;;;;;;5049940;28;20057;-69
2022/01/26 13:11:08;;;;;;;58.00;27.60;;;4.50;99.90;;;;;;5050718;28;20049;-75
2022/01/26 13:13:34;;;;;;;57.33;30.48;;;4.50;99.90;;;;;;5051017;28;20052;-76
2022/01/26 13:16:11;;;;;;;60.30;29.30;;;4.50;99.90;;;;;;5049838;28;20499;-72
2022/01/26 13:21:18;;;;;;;54.60;26.10;;;4.60;99.90;;;;;;5047051;28;20061;-76
2022/01/26 13:32:48;;;;;;;49.05;25.08;;;4.80;99.90;;;;;;5068966;28;20053;-73
2022/01/26 13:35:29;;;;;;;50.38;24.98;;;4.80;99.90;;;;;;5047767;28;20061;-73
2022/01/26 13:38:18;;;;;;;58.40;26.85;;;4.90;99.90;;;;;;5049153;28;20106;-73
2022/01/26 13:41:32;;;;;;;45.92;24.92;;;4.90;99.90;;;;;;5067450;28;20056;-73
2022/01/26 13:49:08;;;;;;;51.30;23.88;;;5.00;99.90;;;;;;5063441;28;20081;-73
2022/01/26 13:54:27;;;;;;;55.13;24.83;;;5.10;99.90;;;;;;5034823;28;20120;-73
2022/01/26 13:57:10;;;;;;;44.70;22.50;;;5.10;99.90;;;;;;5048889;28;20041;-73
2022/01/26 13:59:56;;;;;;;50.50;26.38;;;5.10;99.90;;;;;;5050100;28;20480;-73
2022/01/26 14:02:25;;;;;;;47.58;24.17;;;5.10;99.90;;;;;;5048295;28;20106;-73
2022/01/26 14:04:50;;;;;;;52.80;25.83;;;5.10;99.90;;;;;;5065551;28;20124;-72
2022/01/26 14:07:17;;;;;;;48.47;24.88;;;5.10;99.90;;;;;;5063115;28;20471;-73
2022/01/26 14:09:44;;;;;;;49.75;25.52;;;5.20;99.90;;;;;;5071860;28;20476;-73
2022/01/26 14:12:12;;;;;;;57.40;24.58;;;5.20;99.90;;;;;;5048146;28;20087;-72
2022/01/26 14:14:42;;;;;;;52.05;24.98;;;5.20;99.90;;;;;;5049333;28;20064;-73
2022/01/26 14:17:15;;;;;;;56.33;26.92;;;5.20;99.90;;;;;;5049722;28;20094;-73
2022/01/26 14:25:28;;;;;;;57.22;27.27;;;5.10;99.90;;;;;;5048443;28;20049;-73
2022/01/26 14:27:59;;;;;;;49.28;24.85;;;5.10;99.90;;;;;;5083339;28;20053;-74
2022/01/26 14:52:39;;;;;;;50.78;24.80;;;5.10;99.90;;;;;;5048890;28;20140;-77
2022/01/26 15:00:37;;;;;;;45.85;22.48;;;5.20;99.90;;;;;;5032280;28;20515;-77
2022/01/26 15:22:56;;;;;;;57.88;24.95;;;5.20;99.90;;;;;;5047504;28;20514;-79
2022/01/26 15:35:39;;;;;;;49.30;22.98;;;5.20;99.90;;;;;;5040838;28;20052;-77
2022/01/26 15:41:12;;;;;;;52.58;24.60;;;5.20;99.90;;;;;;5081685;28;20140;-76
2022/01/26 15:43:52;;;;;;;51.38;22.40;;;5.30;99.90;;;;;;5084044;28;20491;-76
2022/01/26 16:07:22;;;;;;;46.10;22.83;;;5.30;99.90;;;;;;5049871;28;20052;-75
2022/01/26 16:16:33;;;;;;;53.58;23.90;;;5.30;99.90;;;;;;5050106;28;20052;-76
2022/01/26 16:20:49;;;;;;;48.35;24.80;;;5.30;99.90;;;;;;5052535;28;20406;-73
2022/01/26 18:38:54;;;;;;;43.15;22.52;;;5.50;99.90;;;;;;5061912;28;20152;-74
2022/01/26 18:46:55;;;;;;;44.47;22.65;;;5.50;99.90;;;;;;5045836;28;20056;-74
2022/01/26 18:49:22;;;;;;;47.90;24.52;;;5.60;99.90;;;;;;5047274;28;20048;-72
2022/01/26 18:51:52;;;;;;;39.25;19.92;;;5.60;99.90;;;;;;5046140;28;20051;-72
2022/01/26 18:54:20;;;;;;;45.58;22.50;;;5.60;99.90;;;;;;5042439;28;20037;-72
2022/01/26 18:56:46;;;;;;;40.20;21.92;;;5.60;99.90;;;;;;5047912;28;20462;-71
2022/01/26 18:59:14;;;;;;;42.90;22.60;;;5.70;99.90;;;;;;5043948;28;20145;-72
2022/01/26 19:01:41;;;;;;;39.63;19.90;;;5.70;99.90;;;;;;5046960;28;20549;-72
2022/01/26 19:04:07;;;;;;;37.78;21.10;;;5.70;99.90;;;;;;5084312;28;20044;-72
2022/01/26 19:06:33;;;;;;;40.03;20.67;;;5.70;99.90;;;;;;5047463;28;20044;-72
2022/01/26 19:08:58;;;;;;;37.33;20.38;;;5.70;99.90;;;;;;5049296;28;20041;-71
2022/01/26 19:11:25;;;;;;;39.28;19.70;;;5.80;99.90;;;;;;5050683;28;20098;-71
2022/01/26 19:13:51;;;;;;;38.05;20.75;;;5.80;99.90;;;;;;5051292;28;20036;-72
2022/01/26 19:16:36;;;;;;;40.08;21.42;;;5.70;99.90;;;;;;5050693;28;20049;-72